createdAt,value
2022-09-01T00:12:50.360Z,16.30
2022-09-01T00:22:48.744Z,16.20
2022-09-01T00:25:19.185Z,16.10
2022-09-01T00:30:16.253Z,16.10
2022-09-01T00:32:46.859Z,16.10
2022-09-01T00:35:18.552Z,16.10
2022-09-01T00:37:46.521Z,16.00
2022-09-01T00:40:16.916Z,16.10
2022-09-01T00:45:13.570Z,15.90
2022-09-01T00:47:42.293Z,15.90
2022-09-01T00:52:53.517Z,15.90
2022-09-01T00:55:32.630Z,15.90
2022-09-01T00:58:02.363Z,15.90
2022-09-01T01:00:33.702Z,15.90
2022-09-01T01:05:40.432Z,15.80
2022-09-01T01:08:11.783Z,15.90
2022-09-01T01:10:42.458Z,15.90
2022-09-01T01:13:16.186Z,15.80
2022-09-01T01:15:45.025Z,15.80
2022-09-01T01:18:18.797Z,15.80
2022-09-01T01:21:27.588Z,15.80
2022-09-01T01:24:23.902Z,15.70
2022-09-01T01:26:52.871Z,15.80
2022-09-01T01:39:28.821Z,15.70
2022-09-01T01:41:58.816Z,15.60
2022-09-01T01:44:28.405Z,15.60
2022-09-01T01:57:04.509Z,15.40
2022-09-01T01:59:33.493Z,15.40
2022-09-01T02:02:04.073Z,15.40
2022-09-01T02:07:12.148Z,15.30
2022-09-01T02:09:44.202Z,15.20
2022-09-01T02:19:42.988Z,15.30
2022-09-01T02:24:46.581Z,15.20
2022-09-01T02:37:08.653Z,15.10
2022-09-01T02:39:36.562Z,15.00
2022-09-01T02:42:04.909Z,15.00
2022-09-01T02:47:09.921Z,15.00
2022-09-01T02:49:38.880Z,15.10
2022-09-01T02:54:36.388Z,15.00
2022-09-01T02:57:04.629Z,14.90
2022-09-01T02:59:34.758Z,14.90
2022-09-01T03:04:35.085Z,14.80
2022-09-01T03:07:06.413Z,14.80
2022-09-01T03:12:07.183Z,14.90
2022-09-01T03:14:35.922Z,14.90
2022-09-01T03:17:03.917Z,14.70
2022-09-01T03:22:10.172Z,14.90
2022-09-01T03:32:05.960Z,14.90
2022-09-01T03:37:08.072Z,14.90
2022-09-01T03:39:36.818Z,15.00
2022-09-01T03:42:05.503Z,15.10
2022-09-01T03:52:01.383Z,15.10
2022-09-01T03:57:00.083Z,15.10
2022-09-01T04:02:00.484Z,15.10
2022-09-01T04:04:33.047Z,15.20
2022-09-01T04:09:35.236Z,15.20
2022-09-01T04:12:09.115Z,15.30
2022-09-01T04:14:38.906Z,15.30
2022-09-01T04:30:13.033Z,15.20
2022-09-01T04:32:47.490Z,15.10
2022-09-01T04:35:19.340Z,15.10
2022-09-01T04:45:20.808Z,15.00
2022-09-01T04:55:49.738Z,14.90
2022-09-01T05:00:52.669Z,14.90
2022-09-01T05:08:35.518Z,14.80
2022-09-01T05:13:45.561Z,14.80
2022-09-01T05:16:22.750Z,14.80
2022-09-01T05:24:00.871Z,14.80
2022-09-01T05:26:33.862Z,14.80
2022-09-01T05:29:10.912Z,14.90
2022-09-01T05:31:42.365Z,14.80
2022-09-01T05:34:13.998Z,14.80
2022-09-01T05:36:46.288Z,14.80
2022-09-01T05:44:14.184Z,14.80
2022-09-01T05:51:50.910Z,14.90
2022-09-01T05:54:27.509Z,14.80
2022-09-01T05:57:23.375Z,14.90
2022-09-01T06:27:38.842Z,15.40
2022-09-01T06:30:15.136Z,15.50
2022-09-01T06:35:20.471Z,15.50
2022-09-01T06:40:38.756Z,15.80
2022-09-01T06:45:55.134Z,15.90
2022-09-01T06:53:56.755Z,16.20
2022-09-01T06:56:33.456Z,16.30
2022-09-01T07:10:17.806Z,16.70
2022-09-01T07:13:11.943Z,16.80
2022-09-01T07:21:35.591Z,17.20
2022-09-01T07:35:03.330Z,17.80
2022-09-01T07:54:36.255Z,18.40
2022-09-01T08:02:18.468Z,18.60
2022-09-01T08:25:38.844Z,20.10
2022-09-01T08:35:45.963Z,19.90
2022-09-01T08:38:14.950Z,19.90
2022-09-01T08:40:56.351Z,19.90
2022-09-01T08:43:37.872Z,20.50
2022-09-01T08:46:35.122Z,20.70
2022-09-01T08:49:26.560Z,20.70
2022-09-01T08:52:34.513Z,21.10
2022-09-01T08:55:32.345Z,21.10
2022-09-01T08:58:01.434Z,21.00
2022-09-01T09:00:37.054Z,21.60
2022-09-01T09:03:41.592Z,21.60
2022-09-01T09:06:25.833Z,21.50
2022-09-01T09:08:58.392Z,22.10
2022-09-01T09:12:10.009Z,22.40
2022-09-01T09:15:27.957Z,22.40
2022-09-01T09:18:39.944Z,21.70
2022-09-01T09:21:31.506Z,22.40
2022-09-01T09:24:29.185Z,23.10
2022-09-01T09:32:39.773Z,23.60
2022-09-01T09:35:31.997Z,23.20
2022-09-01T09:38:29.611Z,23.30
2022-09-01T09:41:25.463Z,22.90
2022-09-01T09:44:08.482Z,22.90
2022-09-01T09:46:45.976Z,23.40
2022-09-01T09:49:35.110Z,23.70
2022-09-01T09:52:19.255Z,23.80
2022-09-01T09:55:04.634Z,23.60
2022-09-01T10:00:24.004Z,23.80
2022-09-01T10:03:07.876Z,24.50
2022-09-01T10:05:44.781Z,24.30
2022-09-01T10:08:45.487Z,24.20
2022-09-01T10:11:35.327Z,23.80
2022-09-01T10:14:47.959Z,23.40
2022-09-01T10:17:26.403Z,23.30
2022-09-01T10:20:07.980Z,23.50
2022-09-01T10:22:42.060Z,23.80
2022-09-01T10:25:32.498Z,24.50
2022-09-01T10:28:20.951Z,24.20
2022-09-01T10:30:51.834Z,24.00
2022-09-01T10:33:22.664Z,24.00
2022-09-01T10:35:54.160Z,24.10
2022-09-01T10:38:28.774Z,24.50
2022-09-01T10:41:15.848Z,24.60
2022-09-01T10:43:49.004Z,25.00
2022-09-01T10:46:24.803Z,25.30
2022-09-01T10:49:04.456Z,24.60
2022-09-01T10:51:51.575Z,25.00
2022-09-01T10:54:55.741Z,24.50
2022-09-01T10:57:51.080Z,25.50
2022-09-01T11:00:41.469Z,24.90
2022-09-01T11:06:13.585Z,25.00
2022-09-01T11:08:50.957Z,25.60
2022-09-01T11:11:49.675Z,25.50
2022-09-01T11:14:23.029Z,25.50
2022-09-01T11:17:15.830Z,24.60
2022-09-01T11:20:11.427Z,24.20
2022-09-01T11:22:59.192Z,24.40
2022-09-01T11:25:39.354Z,24.70
2022-09-01T11:28:18.022Z,24.90
2022-09-01T11:31:08.726Z,25.10
2022-09-01T11:34:10.409Z,25.80
2022-09-01T11:36:51.159Z,25.80
2022-09-01T11:42:07.604Z,26.40
2022-09-01T11:44:48.433Z,26.40
2022-09-01T11:47:29.589Z,26.20
2022-09-01T11:50:02.259Z,25.80
2022-09-01T11:52:36.130Z,25.80
2022-09-01T11:55:07.936Z,26.70
2022-09-01T11:57:39.166Z,26.10
2022-09-01T12:00:13.004Z,26.20
2022-09-01T12:02:51.544Z,26.70
2022-09-01T12:05:39.277Z,27.50
2022-09-01T12:08:15.954Z,27.70
2022-09-01T12:10:49.164Z,27.80
2022-09-01T12:16:17.534Z,27.20
2022-09-01T12:18:51.623Z,27.50
2022-09-01T12:21:34.902Z,28.40
2022-09-01T12:24:32.741Z,28.50
2022-09-01T12:29:34.708Z,28.10
2022-09-01T12:34:34.215Z,27.70
2022-09-01T12:37:08.998Z,27.30
2022-09-01T12:39:42.503Z,27.10
2022-09-01T12:42:21.391Z,28.20
2022-09-01T12:47:35.842Z,29.10
2022-09-01T12:52:36.867Z,28.70
2022-09-01T12:57:41.345Z,27.70
2022-09-01T13:05:32.728Z,27.70
2022-09-01T13:08:11.982Z,27.40
2022-09-01T13:10:45.359Z,28.00
2022-09-01T13:13:16.258Z,28.20
2022-09-01T13:15:51.807Z,27.90
2022-09-01T13:18:23.708Z,28.10
2022-09-01T13:20:53.493Z,29.00
2022-09-01T13:23:24.380Z,29.30
2022-09-01T13:25:54.192Z,29.70
2022-09-01T13:28:28.533Z,28.90
2022-09-01T13:39:20.473Z,29.80
2022-09-01T13:41:50.194Z,29.40
2022-09-01T14:07:24.818Z,28.50
2022-09-01T14:15:20.754Z,28.40
2022-09-01T14:18:15.217Z,28.00
2022-09-01T14:21:06.004Z,27.70
2022-09-01T14:35:19.889Z,26.80
2022-09-01T14:37:56.369Z,26.80
2022-09-01T14:45:30.644Z,26.50
2022-09-01T14:48:01.724Z,26.90
2022-09-01T14:50:35.800Z,27.50
2022-09-01T14:53:05.247Z,27.70
2022-09-01T15:00:31.704Z,28.20
2022-09-01T15:02:59.779Z,27.60
2022-09-01T15:05:27.901Z,27.80
2022-09-01T15:10:26.348Z,28.70
2022-09-01T15:12:57.360Z,29.00
2022-09-01T15:15:26.722Z,29.40
2022-09-01T15:17:55.470Z,29.10
2022-09-01T15:23:13.492Z,28.40
2022-09-01T15:28:10.021Z,28.80
2022-09-01T15:30:40.110Z,28.10
2022-09-01T15:33:13.351Z,27.80
2022-09-01T15:35:45.094Z,27.80
2022-09-01T15:38:17.778Z,27.90
2022-09-01T15:40:55.456Z,28.20
2022-09-01T15:43:28.138Z,28.10
2022-09-01T15:45:59.745Z,27.30
2022-09-01T15:48:29.581Z,26.90
2022-09-01T15:51:22.349Z,26.80
2022-09-01T15:54:00.079Z,26.70
2022-09-01T15:56:28.856Z,26.90
2022-09-01T15:59:01.572Z,26.80
2022-09-01T16:01:34.572Z,26.60
2022-09-01T16:04:05.193Z,26.50
2022-09-01T16:09:06.042Z,26.80
2022-09-01T16:11:36.758Z,26.50
2022-09-01T16:14:05.632Z,26.60
2022-09-01T16:17:06.312Z,26.80
2022-09-01T16:19:46.365Z,27.20
2022-09-01T16:25:15.701Z,26.20
2022-09-01T16:27:46.407Z,26.60
2022-09-01T16:30:22.376Z,26.10
2022-09-01T16:35:23.313Z,25.80
2022-09-01T16:38:14.809Z,25.80
2022-09-01T16:41:30.752Z,25.70
2022-09-01T16:44:36.394Z,25.40
2022-09-01T16:47:48.705Z,25.20
2022-09-01T16:50:29.414Z,24.70
2022-09-01T16:53:25.973Z,24.60
2022-09-01T16:56:08.058Z,24.40
2022-09-01T16:58:52.289Z,24.30
2022-09-01T17:01:57.564Z,24.30
2022-09-01T17:04:41.006Z,24.30
2022-09-01T17:09:46.383Z,24.20
2022-09-01T17:12:33.691Z,24.20
2022-09-01T17:15:10.283Z,24.10
2022-09-01T17:17:44.571Z,23.90
2022-09-01T17:20:15.813Z,23.90
2022-09-01T17:22:52.380Z,23.80
2022-09-01T17:25:32.869Z,23.80
2022-09-01T17:28:08.653Z,23.60
2022-09-01T17:30:56.270Z,23.70
2022-09-01T17:33:42.179Z,23.50
2022-09-01T17:36:47.448Z,23.50
2022-09-01T17:39:18.986Z,23.40
2022-09-01T17:42:07.715Z,23.20
2022-09-01T17:45:13.205Z,23.10
2022-09-01T17:48:21.507Z,23.00
2022-09-01T17:51:32.754Z,23.00
2022-09-01T17:54:14.593Z,22.90
2022-09-01T17:57:00.377Z,22.90
2022-09-01T17:59:50.501Z,22.70
2022-09-01T18:02:33.858Z,22.70
2022-09-01T18:05:11.955Z,22.70
2022-09-01T18:08:07.259Z,22.60
2022-09-01T18:13:36.189Z,22.40
2022-09-01T18:16:20.163Z,22.20
2022-09-01T18:18:51.855Z,22.20
2022-09-01T18:21:25.997Z,22.00
2022-09-01T18:24:08.434Z,21.90
2022-09-01T18:26:39.334Z,21.90
2022-09-01T18:29:07.881Z,21.80
2022-09-01T18:32:28.933Z,21.70
2022-09-01T18:35:31.755Z,21.60
2022-09-01T18:38:12.724Z,21.50
2022-09-01T18:41:11.555Z,21.50
2022-09-01T18:43:45.161Z,21.50
2022-09-01T18:46:39.615Z,21.40
2022-09-01T18:49:51.013Z,21.40
2022-09-01T18:52:32.698Z,21.20
2022-09-01T18:55:26.346Z,21.10
2022-09-01T18:58:00.494Z,21.00
2022-09-01T19:00:52.216Z,20.90
2022-09-01T19:03:58.347Z,20.80
2022-09-01T19:06:50.709Z,20.80
2022-09-01T19:09:28.676Z,20.70
2022-09-01T19:12:26.648Z,20.40
2022-09-01T19:15:08.715Z,20.60
2022-09-01T19:18:25.413Z,20.50
2022-09-01T19:21:16.078Z,20.40
2022-09-01T19:23:59.620Z,20.30
2022-09-01T19:26:42.782Z,20.30
2022-09-01T19:29:32.197Z,20.30
2022-09-01T19:32:09.463Z,20.10
2022-09-01T19:34:53.596Z,20.10
2022-09-01T19:38:19.176Z,20.10
2022-09-01T19:40:54.385Z,20.00
2022-09-01T19:46:10.123Z,19.90
2022-09-01T19:49:13.128Z,19.90
2022-09-01T19:52:04.903Z,19.80
2022-09-01T19:55:00.721Z,20.90
2022-09-01T20:02:50.595Z,19.70
2022-09-01T20:05:48.078Z,19.70
2022-09-01T20:08:57.004Z,19.60
2022-09-01T20:11:59.126Z,19.50
2022-09-01T20:17:29.824Z,19.40
2022-09-01T20:20:09.942Z,19.40
2022-09-01T20:22:41.239Z,19.30
2022-09-01T20:25:16.518Z,19.30
2022-09-01T20:28:02.148Z,19.00
2022-09-01T20:30:43.070Z,18.90
2022-09-01T20:39:15.521Z,18.50
2022-09-01T20:42:19.769Z,18.40
2022-09-01T20:45:00.113Z,18.40
2022-09-01T20:47:31.635Z,18.40
2022-09-01T20:50:02.469Z,18.30
2022-09-01T20:52:44.916Z,18.10
2022-09-01T20:55:39.819Z,18.20
2022-09-01T20:58:47.031Z,18.20
2022-09-01T21:01:43.451Z,18.20
2022-09-01T21:07:20.541Z,17.90
2022-09-01T21:10:23.084Z,17.80
2022-09-01T21:13:12.445Z,17.80
2022-09-01T21:16:00.219Z,17.80
2022-09-01T21:19:07.516Z,17.80
2022-09-01T21:22:06.467Z,17.70
2022-09-01T21:24:35.904Z,17.60
2022-09-01T21:27:08.654Z,17.40
2022-09-01T21:29:59.610Z,17.40
2022-09-01T21:32:30.690Z,17.40
2022-09-01T21:37:29.024Z,17.20
2022-09-01T21:42:54.590Z,17.10
2022-09-01T21:45:23.485Z,17.00
2022-09-01T21:50:24.333Z,16.90
2022-09-01T21:55:23.715Z,16.80
2022-09-01T22:00:25.681Z,16.80
2022-09-01T22:05:26.166Z,16.60
2022-09-01T22:07:55.997Z,16.50
2022-09-01T22:10:26.805Z,16.40
2022-09-01T22:12:56.277Z,16.40
2022-09-01T22:15:26.309Z,15.30
2022-09-01T22:17:57.598Z,16.40
2022-09-01T22:25:32.636Z,16.30
2022-09-01T22:28:04.042Z,16.20
2022-09-01T22:33:02.146Z,16.10
2022-09-01T23:10:08.993Z,15.70
2022-09-01T23:15:06.301Z,15.80
2022-09-01T23:20:13.010Z,15.60
2022-09-01T23:22:43.645Z,15.50
2022-09-01T23:25:14.417Z,15.60
2022-09-01T23:30:13.930Z,15.50
2022-09-01T23:35:10.983Z,15.30
2022-09-01T23:40:08.305Z,15.40
2022-09-01T23:45:05.402Z,15.10
2022-09-01T23:59:58.491Z,15.10
